sensor_id;sensor_type;location;lat;lon;timestamp;temperature;humidity
6174;DHT22;3120;48.796;9.796;2024-03-23T00:54:35;6.30;99.90
6174;DHT22;3120;48.796;9.796;2024-03-23T00:57:01;6.20;99.90
6174;DHT22;3120;48.796;9.796;2024-03-23T00:59:27;6.20;99.90
6174;DHT22;3120;48.796;9.796;2024-03-23T01:01:54;6.20;99.90
6174;DHT22;3120;48.796;9.796;2024-03-23T01:04:20;6.20;99.90
6174;DHT22;3120;48.796;9.796;2024-03-23T01:06:46;6.20;99.90
6174;DHT22;3120;48.796;9.796;2024-03-23T01:09:12;6.20;99.90
6174;DHT22;3120;48.796;9.796;2024-03-23T01:11:39;6.30;99.90
6174;DHT22;3120;48.796;9.796;2024-03-23T01:14:05;6.30;99.90
6174;DHT22;3120;48.796;9.796;2024-03-23T01:16:31;6.30;99.90
6174;DHT22;3120;48.796;9.796;2024-03-23T01:18:57;6.30;99.90
6174;DHT22;3120;48.796;9.796;2024-03-23T01:21:23;6.30;99.90
6174;DHT22;3120;48.796;9.796;2024-03-23T01:23:48;6.30;99.90
6174;DHT22;3120;48.796;9.796;2024-03-23T01:26:14;6.20;99.90
6174;DHT22;3120;48.796;9.796;2024-03-23T01:28:40;6.20;99.90
6174;DHT22;3120;48.796;9.796;2024-03-23T01:31:05;6.20;99.90
6174;DHT22;3120;48.796;9.796;2024-03-23T01:33:31;6.20;99.90
6174;DHT22;3120;48.796;9.796;2024-03-23T01:35:57;6.10;99.90
6174;DHT22;3120;48.796;9.796;2024-03-23T01:38:22;6.10;99.90
6174;DHT22;3120;48.796;9.796;2024-03-23T01:40:48;6.10;99.90
6174;DHT22;3120;48.796;9.796;2024-03-23T01:43:13;6.10;99.90
6174;DHT22;3120;48.796;9.796;2024-03-23T01:45:39;6.00;99.90
6174;DHT22;3120;48.796;9.796;2024-03-23T01:48:05;6.00;99.90
6174;DHT22;3120;48.796;9.796;2024-03-23T01:50:31;6.00;99.90
6174;DHT22;3120;48.796;9.796;2024-03-23T01:53:04;6.00;99.90
6174;DHT22;3120;48.796;9.796;2024-03-23T01:55:32;6.00;99.90
6174;DHT22;3120;48.796;9.796;2024-03-23T01:57:58;6.00;99.90
6174;DHT22;3120;48.796;9.796;2024-03-23T02:00:24;6.00;99.90
6174;DHT22;3120;48.796;9.796;2024-03-23T02:02:49;6.00;99.90
6174;DHT22;3120;48.796;9.796;2024-03-23T02:05:15;5.90;99.90
6174;DHT22;3120;48.796;9.796;2024-03-23T02:07:41;5.90;99.90
6174;DHT22;3120;48.796;9.796;2024-03-23T02:10:09;5.90;99.90
6174;DHT22;3120;48.796;9.796;2024-03-23T02:12:36;6.00;99.90
6174;DHT22;3120;48.796;9.796;2024-03-23T02:15:02;6.00;99.90
6174;DHT22;3120;48.796;9.796;2024-03-23T02:17:30;6.10;99.90
6174;DHT22;3120;48.796;9.796;2024-03-23T02:19:55;6.00;99.90
6174;DHT22;3120;48.796;9.796;2024-03-23T02:22:21;6.10;99.90
6174;DHT22;3120;48.796;9.796;2024-03-23T02:24:47;6.10;99.90
6174;DHT22;3120;48.796;9.796;2024-03-23T02:27:12;6.10;99.90
6174;DHT22;3120;48.796;9.796;2024-03-23T02:29:38;6.10;99.90
6174;DHT22;3120;48.796;9.796;2024-03-23T02:32:03;6.10;99.90
6174;DHT22;3120;48.796;9.796;2024-03-23T02:34:29;6.10;99.90
6174;DHT22;3120;48.796;9.796;2024-03-23T02:36:55;6.00;99.90
6174;DHT22;3120;48.796;9.796;2024-03-23T02:39:20;6.00;99.90
6174;DHT22;3120;48.796;9.796;2024-03-23T02:41:46;6.00;99.90
6174;DHT22;3120;48.796;9.796;2024-03-23T02:44:13;6.00;99.90
6174;DHT22;3120;48.796;9.796;2024-03-23T02:46:39;5.90;99.90
6174;DHT22;3120;48.796;9.796;2024-03-23T02:49:04;5.90;99.90
6174;DHT22;3120;48.796;9.796;2024-03-23T02:51:30;5.90;99.90
6174;DHT22;3120;48.796;9.796;2024-03-23T02:53:56;6.00;99.90
6174;DHT22;3120;48.796;9.796;2024-03-23T02:56:22;6.00;99.90
6174;DHT22;3120;48.796;9.796;2024-03-23T02:58:47;6.00;99.90
6174;DHT22;3120;48.796;9.796;2024-03-23T03:01:13;6.00;99.90
6174;DHT22;3120;48.796;9.796;2024-03-23T03:03:39;6.10;99.90
6174;DHT22;3120;48.796;9.796;2024-03-23T03:06:04;6.10;99.90
6174;DHT22;3120;48.796;9.796;2024-03-23T03:08:30;6.10;99.90
6174;DHT22;3120;48.796;9.796;2024-03-23T03:10:55;6.10;99.90
6174;DHT22;3120;48.796;9.796;2024-03-23T03:13:21;6.20;99.90
6174;DHT22;3120;48.796;9.796;2024-03-23T03:15:47;6.20;99.90
6174;DHT22;3120;48.796;9.796;2024-03-23T03:18:13;6.30;99.90
6174;DHT22;3120;48.796;9.796;2024-03-23T03:20:39;6.30;99.90
6174;DHT22;3120;48.796;9.796;2024-03-23T03:23:05;6.30;99.90
6174;DHT22;3120;48.796;9.796;2024-03-23T03:25:31;6.20;99.90
6174;DHT22;3120;48.796;9.796;2024-03-23T03:27:57;6.10;99.90
6174;DHT22;3120;48.796;9.796;2024-03-23T03:30:22;6.10;99.90
6174;DHT22;3120;48.796;9.796;2024-03-23T03:32:49;6.20;99.90
6174;DHT22;3120;48.796;9.796;2024-03-23T03:35:14;6.20;99.90
6174;DHT22;3120;48.796;9.796;2024-03-23T03:37:40;6.20;99.90
6174;DHT22;3120;48.796;9.796;2024-03-23T03:40:06;6.20;99.90
6174;DHT22;3120;48.796;9.796;2024-03-23T03:42:34;6.20;99.90
6174;DHT22;3120;48.796;9.796;2024-03-23T03:44:59;6.20;99.90
6174;DHT22;3120;48.796;9.796;2024-03-23T03:47:25;6.30;99.90
6174;DHT22;3120;48.796;9.796;2024-03-23T03:49:51;6.30;99.90
6174;DHT22;3120;48.796;9.796;2024-03-23T03:52:16;6.30;99.90
6174;DHT22;3120;48.796;9.796;2024-03-23T03:54:42;6.30;99.90
6174;DHT22;3120;48.796;9.796;2024-03-23T03:57:07;6.30;99.90
6174;DHT22;3120;48.796;9.796;2024-03-23T03:59:33;6.20;99.90
6174;DHT22;3120;48.796;9.796;2024-03-23T04:01:59;6.10;99.90
6174;DHT22;3120;48.796;9.796;2024-03-23T04:04:25;6.00;99.90
6174;DHT22;3120;48.796;9.796;2024-03-23T04:06:59;5.90;99.90
6174;DHT22;3120;48.796;9.796;2024-03-23T04:09:24;5.80;99.90
6174;DHT22;3120;48.796;9.796;2024-03-23T04:11:50;5.70;99.90
6174;DHT22;3120;48.796;9.796;2024-03-23T04:14:15;5.70;99.90
6174;DHT22;3120;48.796;9.796;2024-03-23T04:16:41;5.60;99.90
6174;DHT22;3120;48.796;9.796;2024-03-23T04:19:06;5.60;99.90
6174;DHT22;3120;48.796;9.796;2024-03-23T04:21:32;5.60;99.90
6174;DHT22;3120;48.796;9.796;2024-03-23T04:23:57;5.50;99.90
6174;DHT22;3120;48.796;9.796;2024-03-23T04:26:23;5.50;99.90
6174;DHT22;3120;48.796;9.796;2024-03-23T04:28:49;5.50;99.90
6174;DHT22;3120;48.796;9.796;2024-03-23T04:31:14;5.50;99.90
6174;DHT22;3120;48.796;9.796;2024-03-23T04:33:40;5.60;99.90
6174;DHT22;3120;48.796;9.796;2024-03-23T04:36:06;5.60;99.90
6174;DHT22;3120;48.796;9.796;2024-03-23T04:38:32;5.50;99.90
6174;DHT22;3120;48.796;9.796;2024-03-23T04:40:59;5.50;99.90
6174;DHT22;3120;48.796;9.796;2024-03-23T04:43:28;5.50;99.90
6174;DHT22;3120;48.796;9.796;2024-03-23T04:45:54;5.50;99.90
6174;DHT22;3120;48.796;9.796;2024-03-23T04:48:21;5.50;99.90
6174;DHT22;3120;48.796;9.796;2024-03-23T04:50:48;5.50;99.90
6174;DHT22;3120;48.796;9.796;2024-03-23T04:53:14;5.50;99.90
6174;DHT22;3120;48.796;9.796;2024-03-23T04:55:39;5.60;99.90
6174;DHT22;3120;48.796;9.796;2024-03-23T04:58:05;5.70;99.90
6174;DHT22;3120;48.796;9.796;2024-03-23T05:00:30;5.80;99.90
6174;DHT22;3120;48.796;9.796;2024-03-23T05:02:56;5.90;99.90
6174;DHT22;3120;48.796;9.796;2024-03-23T05:05:21;5.90;99.90
6174;DHT22;3120;48.796;9.796;2024-03-23T05:07:47;5.90;99.90
6174;DHT22;3120;48.796;9.796;2024-03-23T05:10:13;6.00;99.90
6174;DHT22;3120;48.796;9.796;2024-03-23T05:12:39;6.10;99.90
6174;DHT22;3120;48.796;9.796;2024-03-23T05:15:05;6.20;99.90
6174;DHT22;3120;48.796;9.796;2024-03-23T05:17:32;6.30;99.90
6174;DHT22;3120;48.796;9.796;2024-03-23T05:19:57;6.40;99.90
6174;DHT22;3120;48.796;9.796;2024-03-23T05:22:23;6.60;99.90
6174;DHT22;3120;48.796;9.796;2024-03-23T05:24:49;6.90;99.90
6174;DHT22;3120;48.796;9.796;2024-03-23T05:27:14;7.30;99.90
6174;DHT22;3120;48.796;9.796;2024-03-23T05:29:40;8.10;99.90
6174;DHT22;3120;48.796;9.796;2024-03-23T05:32:06;8.70;99.90
6174;DHT22;3120;48.796;9.796;2024-03-23T05:34:32;9.40;99.90
6174;DHT22;3120;48.796;9.796;2024-03-23T05:36:57;9.80;99.90
6174;DHT22;3120;48.796;9.796;2024-03-23T05:39:23;9.80;99.90
6174;DHT22;3120;48.796;9.796;2024-03-23T05:41:49;9.60;99.90
6174;DHT22;3120;48.796;9.796;2024-03-23T05:44:15;9.50;99.90
6174;DHT22;3120;48.796;9.796;2024-03-23T05:46:41;9.30;99.90
6174;DHT22;3120;48.796;9.796;2024-03-23T05:49:07;9.30;99.90
6174;DHT22;3120;48.796;9.796;2024-03-23T05:51:32;9.20;99.90
6174;DHT22;3120;48.796;9.796;2024-03-23T05:53:58;9.20;99.90
6174;DHT22;3120;48.796;9.796;2024-03-23T05:56:24;9.30;99.90
6174;DHT22;3120;48.796;9.796;2024-03-23T05:58:51;9.20;99.90
6174;DHT22;3120;48.796;9.796;2024-03-23T06:01:17;9.10;99.90
6174;DHT22;3120;48.796;9.796;2024-03-23T06:03:43;9.30;99.90
6174;DHT22;3120;48.796;9.796;2024-03-23T06:06:11;9.10;99.90
6174;DHT22;3120;48.796;9.796;2024-03-23T06:08:38;9.10;99.90
6174;DHT22;3120;48.796;9.796;2024-03-23T06:11:04;9.20;99.90
6174;DHT22;3120;48.796;9.796;2024-03-23T06:13:32;9.20;99.90
6174;DHT22;3120;48.796;9.796;2024-03-23T06:15:58;9.10;99.90
6174;DHT22;3120;48.796;9.796;2024-03-23T06:18:24;9.10;99.90
6174;DHT22;3120;48.796;9.796;2024-03-23T06:20:50;9.10;99.90
6174;DHT22;3120;48.796;9.796;2024-03-23T06:23:15;9.00;99.90
6174;DHT22;3120;48.796;9.796;2024-03-23T06:25:42;8.90;99.90
6174;DHT22;3120;48.796;9.796;2024-03-23T06:28:12;8.80;99.90
6174;DHT22;3120;48.796;9.796;2024-03-23T06:30:38;8.80;99.90
6174;DHT22;3120;48.796;9.796;2024-03-23T06:33:04;8.70;99.90
6174;DHT22;3120;48.796;9.796;2024-03-23T06:35:31;8.70;99.90
6174;DHT22;3120;48.796;9.796;2024-03-23T06:37:57;8.60;99.90
6174;DHT22;3120;48.796;9.796;2024-03-23T06:40:23;8.60;99.90
6174;DHT22;3120;48.796;9.796;2024-03-23T06:42:49;8.60;99.90
6174;DHT22;3120;48.796;9.796;2024-03-23T06:45:21;8.50;99.90
6174;DHT22;3120;48.796;9.796;2024-03-23T06:47:55;8.50;99.90
6174;DHT22;3120;48.796;9.796;2024-03-23T06:50:23;8.50;99.90
6174;DHT22;3120;48.796;9.796;2024-03-23T06:52:50;8.50;99.90
6174;DHT22;3120;48.796;9.796;2024-03-23T06:55:16;8.40;99.90
6174;DHT22;3120;48.796;9.796;2024-03-23T06:57:43;8.40;99.90
6174;DHT22;3120;48.796;9.796;2024-03-23T07:00:09;8.40;99.90
6174;DHT22;3120;48.796;9.796;2024-03-23T07:02:35;7.80;99.90
6174;DHT22;3120;48.796;9.796;2024-03-23T07:05:01;8.40;99.90
6174;DHT22;3120;48.796;9.796;2024-03-23T07:07:27;8.40;99.90
6174;DHT22;3120;48.796;9.796;2024-03-23T07:09:53;9.60;99.90
6174;DHT22;3120;48.796;9.796;2024-03-23T07:12:18;8.40;99.90
6174;DHT22;3120;48.796;9.796;2024-03-23T07:14:44;8.40;99.90
6174;DHT22;3120;48.796;9.796;2024-03-23T07:17:10;8.50;99.90
6174;DHT22;3120;48.796;9.796;2024-03-23T07:19:36;8.40;99.90
6174;DHT22;3120;48.796;9.796;2024-03-23T07:22:02;8.40;99.90
6174;DHT22;3120;48.796;9.796;2024-03-23T07:24:27;8.40;99.90
6174;DHT22;3120;48.796;9.796;2024-03-23T07:26:53;8.80;99.90
6174;DHT22;3120;48.796;9.796;2024-03-23T07:29:20;8.40;99.90
6174;DHT22;3120;48.796;9.796;2024-03-23T07:31:46;8.40;99.90
6174;DHT22;3120;48.796;9.796;2024-03-23T07:34:12;8.60;99.90
6174;DHT22;3120;48.796;9.796;2024-03-23T07:36:37;8.50;99.90
6174;DHT22;3120;48.796;9.796;2024-03-23T07:39:03;8.70;99.90
6174;DHT22;3120;48.796;9.796;2024-03-23T07:41:29;9.20;99.90
6174;DHT22;3120;48.796;9.796;2024-03-23T07:43:56;8.70;99.90
6174;DHT22;3120;48.796;9.796;2024-03-23T07:46:21;8.80;99.90
6174;DHT22;3120;48.796;9.796;2024-03-23T07:48:47;8.90;99.90
6174;DHT22;3120;48.796;9.796;2024-03-23T07:51:19;8.90;99.90
6174;DHT22;3120;48.796;9.796;2024-03-23T07:53:45;9.00;99.90
6174;DHT22;3120;48.796;9.796;2024-03-23T07:56:14;9.00;99.90
6174;DHT22;3120;48.796;9.796;2024-03-23T07:58:41;9.00;99.90
6174;DHT22;3120;48.796;9.796;2024-03-23T08:01:09;8.90;99.90
6174;DHT22;3120;48.796;9.796;2024-03-23T08:03:39;9.10;99.90
6174;DHT22;3120;48.796;9.796;2024-03-23T08:06:08;9.00;99.90
6174;DHT22;3120;48.796;9.796;2024-03-23T08:08:34;8.90;99.90
6174;DHT22;3120;48.796;9.796;2024-03-23T08:11:00;9.00;99.90
6174;DHT22;3120;48.796;9.796;2024-03-23T08:13:26;8.90;99.90
6174;DHT22;3120;48.796;9.796;2024-03-23T08:15:52;8.90;99.90
6174;DHT22;3120;48.796;9.796;2024-03-23T08:18:21;8.80;99.90
6174;DHT22;3120;48.796;9.796;2024-03-23T08:20:46;8.70;99.90
6174;DHT22;3120;48.796;9.796;2024-03-23T08:23:12;8.70;99.90
6174;DHT22;3120;48.796;9.796;2024-03-23T08:25:37;8.70;99.90
6174;DHT22;3120;48.796;9.796;2024-03-23T08:28:03;8.70;99.90
6174;DHT22;3120;48.796;9.796;2024-03-23T08:30:29;8.60;99.90
6174;DHT22;3120;48.796;9.796;2024-03-23T08:32:55;8.60;99.90
6174;DHT22;3120;48.796;9.796;2024-03-23T08:35:20;8.60;99.90
6174;DHT22;3120;48.796;9.796;2024-03-23T08:37:46;8.70;99.90
6174;DHT22;3120;48.796;9.796;2024-03-23T08:40:12;8.50;99.90
6174;DHT22;3120;48.796;9.796;2024-03-23T08:42:37;8.50;99.90
6174;DHT22;3120;48.796;9.796;2024-03-23T08:45:03;8.40;99.90
6174;DHT22;3120;48.796;9.796;2024-03-23T08:47:29;8.20;99.90
6174;DHT22;3120;48.796;9.796;2024-03-23T08:49:54;8.00;99.90
6174;DHT22;3120;48.796;9.796;2024-03-23T08:52:20;7.90;99.90
6174;DHT22;3120;48.796;9.796;2024-03-23T08:54:48;7.80;99.90
6174;DHT22;3120;48.796;9.796;2024-03-23T08:57:14;7.70;99.90
6174;DHT22;3120;48.796;9.796;2024-03-23T08:59:39;7.50;99.90
6174;DHT22;3120;48.796;9.796;2024-03-23T09:02:05;7.40;99.90
6174;DHT22;3120;48.796;9.796;2024-03-23T09:04:30;7.00;99.90
6174;DHT22;3120;48.796;9.796;2024-03-23T09:06:56;6.90;99.90
6174;DHT22;3120;48.796;9.796;2024-03-23T09:09:24;7.00;99.90
6174;DHT22;3120;48.796;9.796;2024-03-23T09:11:49;7.30;99.90
6174;DHT22;3120;48.796;9.796;2024-03-23T09:14:15;7.30;99.90
6174;DHT22;3120;48.796;9.796;2024-03-23T09:16:41;7.30;99.90
6174;DHT22;3120;48.796;9.796;2024-03-23T09:19:06;7.50;99.90
6174;DHT22;3120;48.796;9.796;2024-03-23T09:21:32;7.60;99.90
6174;DHT22;3120;48.796;9.796;2024-03-23T09:23:58;7.80;99.90
6174;DHT22;3120;48.796;9.796;2024-03-23T09:26:23;8.10;99.90
6174;DHT22;3120;48.796;9.796;2024-03-23T09:28:49;8.20;99.90
6174;DHT22;3120;48.796;9.796;2024-03-23T09:31:15;8.30;99.90
6174;DHT22;3120;48.796;9.796;2024-03-23T09:33:41;8.30;99.90
6174;DHT22;3120;48.796;9.796;2024-03-23T09:36:07;8.30;99.90
6174;DHT22;3120;48.796;9.796;2024-03-23T09:38:33;8.50;99.90
6174;DHT22;3120;48.796;9.796;2024-03-23T09:40:59;8.30;99.90
6174;DHT22;3120;48.796;9.796;2024-03-23T09:43:25;8.20;99.90
6174;DHT22;3120;48.796;9.796;2024-03-23T09:45:51;8.80;99.90
6174;DHT22;3120;48.796;9.796;2024-03-23T09:48:17;9.40;99.90
6174;DHT22;3120;48.796;9.796;2024-03-23T09:50:44;9.30;99.90
6174;DHT22;3120;48.796;9.796;2024-03-23T09:53:12;9.20;99.90
6174;DHT22;3120;48.796;9.796;2024-03-23T09:55:39;9.20;99.90
6174;DHT22;3120;48.796;9.796;2024-03-23T09:58:06;9.00;99.90
6174;DHT22;3120;48.796;9.796;2024-03-23T10:00:32;9.00;99.90
6174;DHT22;3120;48.796;9.796;2024-03-23T10:02:59;9.40;99.90
6174;DHT22;3120;48.796;9.796;2024-03-23T10:05:28;9.60;99.90
6174;DHT22;3120;48.796;9.796;2024-03-23T10:07:54;9.60;99.90
6174;DHT22;3120;48.796;9.796;2024-03-23T10:10:20;9.40;99.90
6174;DHT22;3120;48.796;9.796;2024-03-23T10:12:48;9.30;99.90
6174;DHT22;3120;48.796;9.796;2024-03-23T10:15:24;9.70;99.90
6174;DHT22;3120;48.796;9.796;2024-03-23T10:17:50;10.60;99.90
6174;DHT22;3120;48.796;9.796;2024-03-23T10:20:20;11.00;99.90
6174;DHT22;3120;48.796;9.796;2024-03-23T10:22:48;11.00;99.90
6174;DHT22;3120;48.796;9.796;2024-03-23T10:25:16;10.90;99.90
6174;DHT22;3120;48.796;9.796;2024-03-23T10:30:13;10.60;99.90
6174;DHT22;3120;48.796;9.796;2024-03-23T10:32:42;11.30;99.90
6174;DHT22;3120;48.796;9.796;2024-03-23T10:35:18;11.30;99.90
6174;DHT22;3120;48.796;9.796;2024-03-23T10:37:45;11.20;99.90
6174;DHT22;3120;48.796;9.796;2024-03-23T10:40:13;10.90;99.90
6174;DHT22;3120;48.796;9.796;2024-03-23T10:42:39;10.50;99.90
6174;DHT22;3120;48.796;9.796;2024-03-23T10:45:07;10.60;99.90
6174;DHT22;3120;48.796;9.796;2024-03-23T10:47:37;11.60;99.90
6174;DHT22;3120;48.796;9.796;2024-03-23T10:50:06;11.80;99.90
6174;DHT22;3120;48.796;9.796;2024-03-23T10:52:35;11.50;99.90
6174;DHT22;3120;48.796;9.796;2024-03-23T10:55:02;11.00;99.90
6174;DHT22;3120;48.796;9.796;2024-03-23T10:57:42;10.30;99.90
6174;DHT22;3120;48.796;9.796;2024-03-23T11:00:10;10.00;99.90
6174;DHT22;3120;48.796;9.796;2024-03-23T11:02:36;9.70;99.90
6174;DHT22;3120;48.796;9.796;2024-03-23T11:05:01;9.80;99.90
6174;DHT22;3120;48.796;9.796;2024-03-23T11:07:28;10.50;99.90
6174;DHT22;3120;48.796;9.796;2024-03-23T11:09:55;11.50;99.90
6174;DHT22;3120;48.796;9.796;2024-03-23T11:14:51;13.40;99.90
6174;DHT22;3120;48.796;9.796;2024-03-23T11:17:21;13.00;99.90
6174;DHT22;3120;48.796;9.796;2024-03-23T11:20:04;11.70;99.90
6174;DHT22;3120;48.796;9.796;2024-03-23T11:22:41;10.80;99.90
6174;DHT22;3120;48.796;9.796;2024-03-23T11:25:21;9.80;99.90
6174;DHT22;3120;48.796;9.796;2024-03-23T11:27:48;9.10;99.90
6174;DHT22;3120;48.796;9.796;2024-03-23T11:30:22;7.70;99.90
6174;DHT22;3120;48.796;9.796;2024-03-23T11:32:50;6.80;99.90
6174;DHT22;3120;48.796;9.796;2024-03-23T11:35:29;6.40;99.90
6174;DHT22;3120;48.796;9.796;2024-03-23T11:40:33;6.00;99.90
6174;DHT22;3120;48.796;9.796;2024-03-23T11:43:04;5.70;99.90
6174;DHT22;3120;48.796;9.796;2024-03-23T11:45:42;5.40;99.90
6174;DHT22;3120;48.796;9.796;2024-03-23T11:48:09;5.20;99.90
6174;DHT22;3120;48.796;9.796;2024-03-23T11:50:38;5.10;99.90
6174;DHT22;3120;48.796;9.796;2024-03-23T11:55:56;5.10;99.90
6174;DHT22;3120;48.796;9.796;2024-03-23T11:58:23;5.20;99.90
6174;DHT22;3120;48.796;9.796;2024-03-23T12:00:59;5.40;99.90
6174;DHT22;3120;48.796;9.796;2024-03-23T12:03:28;5.40;99.90
6174;DHT22;3120;48.796;9.796;2024-03-23T12:06:00;5.60;99.90
6174;DHT22;3120;48.796;9.796;2024-03-23T12:08:36;6.00;99.90
6174;DHT22;3120;48.796;9.796;2024-03-23T12:11:15;6.10;99.90
6174;DHT22;3120;48.796;9.796;2024-03-23T12:13:42;6.40;99.90
6174;DHT22;3120;48.796;9.796;2024-03-23T12:16:09;6.60;99.90
6174;DHT22;3120;48.796;9.796;2024-03-23T12:18:39;7.10;99.90
6174;DHT22;3120;48.796;9.796;2024-03-23T12:21:05;7.40;99.90
6174;DHT22;3120;48.796;9.796;2024-03-23T12:23:31;7.80;99.90
6174;DHT22;3120;48.796;9.796;2024-03-23T12:25:58;7.60;99.90
6174;DHT22;3120;48.796;9.796;2024-03-23T12:28:23;7.80;99.90
6174;DHT22;3120;48.796;9.796;2024-03-23T12:30:49;7.90;99.90
6174;DHT22;3120;48.796;9.796;2024-03-23T12:33:15;8.20;99.90
6174;DHT22;3120;48.796;9.796;2024-03-23T12:35:40;8.50;99.90
6174;DHT22;3120;48.796;9.796;2024-03-23T12:38:06;8.50;99.90
6174;DHT22;3120;48.796;9.796;2024-03-23T12:40:32;7.90;99.90
6174;DHT22;3120;48.796;9.796;2024-03-23T12:42:58;7.40;99.90
6174;DHT22;3120;48.796;9.796;2024-03-23T12:45:23;7.20;99.90
6174;DHT22;3120;48.796;9.796;2024-03-23T12:47:49;7.20;99.90
6174;DHT22;3120;48.796;9.796;2024-03-23T12:50:15;7.20;99.90
6174;DHT22;3120;48.796;9.796;2024-03-23T12:52:40;7.20;99.90
6174;DHT22;3120;48.796;9.796;2024-03-23T12:55:07;7.20;99.90
6174;DHT22;3120;48.796;9.796;2024-03-23T12:57:32;7.20;99.90
6174;DHT22;3120;48.796;9.796;2024-03-23T12:59:59;7.20;99.90
6174;DHT22;3120;48.796;9.796;2024-03-23T13:02:25;7.20;99.90
6174;DHT22;3120;48.796;9.796;2024-03-23T13:04:52;7.20;99.90
6174;DHT22;3120;48.796;9.796;2024-03-23T13:07:18;7.10;99.90
6174;DHT22;3120;48.796;9.796;2024-03-23T13:09:45;7.20;99.90
6174;DHT22;3120;48.796;9.796;2024-03-23T13:12:11;7.20;99.90
6174;DHT22;3120;48.796;9.796;2024-03-23T13:14:39;7.10;99.90
6174;DHT22;3120;48.796;9.796;2024-03-23T13:17:06;7.30;99.90
6174;DHT22;3120;48.796;9.796;2024-03-23T13:19:32;7.60;99.90
6174;DHT22;3120;48.796;9.796;2024-03-23T13:21:58;9.00;99.90
6174;DHT22;3120;48.796;9.796;2024-03-23T13:24:30;9.00;99.90
6174;DHT22;3120;48.796;9.796;2024-03-23T13:26:56;9.00;99.90
6174;DHT22;3120;48.796;9.796;2024-03-23T13:29:22;9.00;99.90
6174;DHT22;3120;48.796;9.796;2024-03-23T13:31:49;8.90;99.90
6174;DHT22;3120;48.796;9.796;2024-03-23T13:34:16;8.70;99.90
6174;DHT22;3120;48.796;9.796;2024-03-23T13:36:42;8.80;99.90
6174;DHT22;3120;48.796;9.796;2024-03-23T13:39:08;8.80;99.90
6174;DHT22;3120;48.796;9.796;2024-03-23T13:41:43;9.00;99.90
6174;DHT22;3120;48.796;9.796;2024-03-23T13:44:10;9.70;99.90
6174;DHT22;3120;48.796;9.796;2024-03-23T13:46:36;10.20;99.90
6174;DHT22;3120;48.796;9.796;2024-03-23T13:49:02;11.00;99.90
6174;DHT22;3120;48.796;9.796;2024-03-23T13:51:28;12.40;99.90
6174;DHT22;3120;48.796;9.796;2024-03-23T13:53:54;13.80;99.90
6174;DHT22;3120;48.796;9.796;2024-03-23T13:56:25;14.60;99.90
6174;DHT22;3120;48.796;9.796;2024-03-23T13:58:50;13.40;99.90
6174;DHT22;3120;48.796;9.796;2024-03-23T14:01:16;11.60;99.90
6174;DHT22;3120;48.796;9.796;2024-03-23T14:03:43;10.50;99.90
6174;DHT22;3120;48.796;9.796;2024-03-23T14:06:09;10.20;99.90
6174;DHT22;3120;48.796;9.796;2024-03-23T14:08:38;11.20;99.90
6174;DHT22;3120;48.796;9.796;2024-03-23T14:11:09;12.60;99.90
6174;DHT22;3120;48.796;9.796;2024-03-23T14:13:36;12.50;99.90
6174;DHT22;3120;48.796;9.796;2024-03-23T14:16:02;12.40;99.90
6174;DHT22;3120;48.796;9.796;2024-03-23T14:18:28;12.40;99.90
6174;DHT22;3120;48.796;9.796;2024-03-23T14:20:58;13.00;99.90
6174;DHT22;3120;48.796;9.796;2024-03-23T14:23:25;13.50;99.90
6174;DHT22;3120;48.796;9.796;2024-03-23T14:25:54;13.30;99.90
6174;DHT22;3120;48.796;9.796;2024-03-23T14:28:20;12.70;99.90
6174;DHT22;3120;48.796;9.796;2024-03-23T14:30:46;12.30;99.90
6174;DHT22;3120;48.796;9.796;2024-03-23T14:33:11;12.20;99.90
6174;DHT22;3120;48.796;9.796;2024-03-23T14:35:38;12.90;99.90
6174;DHT22;3120;48.796;9.796;2024-03-23T14:38:04;12.90;99.90
6174;DHT22;3120;48.796;9.796;2024-03-23T14:40:29;11.60;99.90
6174;DHT22;3120;48.796;9.796;2024-03-23T14:42:55;10.70;99.90
6174;DHT22;3120;48.796;9.796;2024-03-23T14:45:21;10.50;99.90
6174;DHT22;3120;48.796;9.796;2024-03-23T14:47:47;10.80;99.90
6174;DHT22;3120;48.796;9.796;2024-03-23T14:50:13;10.30;99.90
6174;DHT22;3120;48.796;9.796;2024-03-23T14:52:42;9.10;99.90
6174;DHT22;3120;48.796;9.796;2024-03-23T14:55:09;7.70;99.90
6174;DHT22;3120;48.796;9.796;2024-03-23T14:57:34;7.00;99.90
6174;DHT22;3120;48.796;9.796;2024-03-23T15:00:01;6.70;99.90
6174;DHT22;3120;48.796;9.796;2024-03-23T15:02:26;6.20;99.90
6174;DHT22;3120;48.796;9.796;2024-03-23T15:04:54;6.50;99.90
6174;DHT22;3120;48.796;9.796;2024-03-23T15:07:19;6.30;99.90
6174;DHT22;3120;48.796;9.796;2024-03-23T15:09:45;6.20;99.90
6174;DHT22;3120;48.796;9.796;2024-03-23T15:12:10;6.70;99.90
6174;DHT22;3120;48.796;9.796;2024-03-23T15:14:37;7.20;99.90
6174;DHT22;3120;48.796;9.796;2024-03-23T15:17:03;7.90;99.90
6174;DHT22;3120;48.796;9.796;2024-03-23T15:19:32;8.30;99.90
6174;DHT22;3120;48.796;9.796;2024-03-23T15:21:58;8.80;99.90
6174;DHT22;3120;48.796;9.796;2024-03-23T15:24:24;9.70;99.90
6174;DHT22;3120;48.796;9.796;2024-03-23T15:26:50;10.20;99.90
6174;DHT22;3120;48.796;9.796;2024-03-23T15:29:17;10.80;99.90
6174;DHT22;3120;48.796;9.796;2024-03-23T15:31:43;10.50;99.90
6174;DHT22;3120;48.796;9.796;2024-03-23T15:34:09;9.20;99.90
6174;DHT22;3120;48.796;9.796;2024-03-23T15:36:37;8.40;99.90
6174;DHT22;3120;48.796;9.796;2024-03-23T15:39:05;7.80;99.90
6174;DHT22;3120;48.796;9.796;2024-03-23T15:41:31;7.70;99.90
6174;DHT22;3120;48.796;9.796;2024-03-23T15:43:57;9.00;99.90
6174;DHT22;3120;48.796;9.796;2024-03-23T15:46:23;8.40;99.90
6174;DHT22;3120;48.796;9.796;2024-03-23T15:48:50;7.90;99.90
6174;DHT22;3120;48.796;9.796;2024-03-23T15:51:16;7.60;99.90
6174;DHT22;3120;48.796;9.796;2024-03-23T15:53:43;7.90;99.90
6174;DHT22;3120;48.796;9.796;2024-03-23T15:56:09;8.80;99.90
6174;DHT22;3120;48.796;9.796;2024-03-23T15:58:35;9.70;99.90
6174;DHT22;3120;48.796;9.796;2024-03-23T16:03:27;11.10;99.90
6174;DHT22;3120;48.796;9.796;2024-03-23T16:05:56;12.00;99.90
6174;DHT22;3120;48.796;9.796;2024-03-23T16:08:23;12.40;99.90
6174;DHT22;3120;48.796;9.796;2024-03-23T16:10:49;11.40;99.90
6174;DHT22;3120;48.796;9.796;2024-03-23T16:13:15;10.20;99.90
6174;DHT22;3120;48.796;9.796;2024-03-23T16:15:41;9.50;99.90
6174;DHT22;3120;48.796;9.796;2024-03-23T16:18:07;9.10;99.90
6174;DHT22;3120;48.796;9.796;2024-03-23T16:20:33;8.70;99.90
6174;DHT22;3120;48.796;9.796;2024-03-23T16:22:59;8.50;99.90
6174;DHT22;3120;48.796;9.796;2024-03-23T16:25:25;8.50;99.90
6174;DHT22;3120;48.796;9.796;2024-03-23T16:27:51;8.40;99.90
6174;DHT22;3120;48.796;9.796;2024-03-23T16:30:16;8.30;99.90
6174;DHT22;3120;48.796;9.796;2024-03-23T16:32:42;8.10;99.90
6174;DHT22;3120;48.796;9.796;2024-03-23T16:35:08;7.90;99.90
6174;DHT22;3120;48.796;9.796;2024-03-23T16:37:37;7.90;99.90
6174;DHT22;3120;48.796;9.796;2024-03-23T16:40:03;7.80;99.90
6174;DHT22;3120;48.796;9.796;2024-03-23T16:42:29;7.80;99.90
6174;DHT22;3120;48.796;9.796;2024-03-23T16:44:55;7.90;99.90
6174;DHT22;3120;48.796;9.796;2024-03-23T16:47:21;8.10;99.90
6174;DHT22;3120;48.796;9.796;2024-03-23T16:49:46;8.20;99.90
6174;DHT22;3120;48.796;9.796;2024-03-23T16:52:12;8.20;99.90
6174;DHT22;3120;48.796;9.796;2024-03-23T16:54:38;8.00;99.90
6174;DHT22;3120;48.796;9.796;2024-03-23T16:57:04;7.80;99.90
6174;DHT22;3120;48.796;9.796;2024-03-23T16:59:29;7.70;99.90
6174;DHT22;3120;48.796;9.796;2024-03-23T17:01:55;7.50;99.90
6174;DHT22;3120;48.796;9.796;2024-03-23T17:04:23;7.30;99.90
6174;DHT22;3120;48.796;9.796;2024-03-23T17:06:49;7.20;99.90
6174;DHT22;3120;48.796;9.796;2024-03-23T17:09:15;7.10;99.90
6174;DHT22;3120;48.796;9.796;2024-03-23T17:11:42;7.00;99.90
6174;DHT22;3120;48.796;9.796;2024-03-23T17:14:09;6.90;99.90
6174;DHT22;3120;48.796;9.796;2024-03-23T17:16:35;6.80;99.90